Time;durP1;ratioP1;P1;durP2;ratioP2;P2;SDS_P1;SDS_P2;PMS_P1;PMS_P2;Temp;Humidity;BMP_temperature;BMP_pressure;BME280_temperature;BME280_humidity;BME280_pressure;Samples;Min_cycle;Max_cycle;Signal;HPM_P1;HPM_P2
2023/06/16 00:00:22;;;;;;;;;;;;;;;;;;136795;1276;22517;-82
2023/06/16 00:03:49;;;;;;;;;;;;;;;;;;137123;1272;22520;-81
2023/06/16 00:06:53;;;;;;;;;;;;;;;;;;137660;1272;22513;-80
2023/06/16 00:09:54;;;;;;;;;;;;;;;;;;136897;1272;22521;-80
2023/06/16 00:12:56;;;;;;;;;;;;;;;;;;137087;1272;22447;-79
2023/06/16 00:15:57;;;;;;;;;;;;;;;;;;137064;1272;22532;-79
2023/06/16 00:18:59;;;;;;;;;;;;;;;;;;137150;1272;22511;-79
2023/06/16 00:22:02;;;;;;;;;;;;;;;;;;137304;1272;22504;-79
2023/06/16 00:25:03;;;;;;;;;;;;;;;;;;137456;1272;22629;-80
2023/06/16 00:28:04;;;;;;;;;;;;;;;;;;137418;1269;22583;-80
2023/06/16 00:31:05;;;;;;;;;;;;;;;;;;137138;1272;22495;-81
2023/06/16 00:34:06;;;;;;;;;;;;;;;;;;137194;1272;22529;-81
2023/06/16 00:37:07;;;;;;;;;;;;;;;;;;137578;1272;22644;-81
2023/06/16 00:40:08;;;;;;;;;;;;;;;;;;137090;1272;22545;-81
2023/06/16 00:43:09;;;;;;;;;;;;;;;;;;137029;1272;22502;-80
2023/06/16 00:46:10;;;;;;;;;;;;;;;;;;137567;1272;25261;-81
2023/06/16 00:49:11;;;;;;;;;;;;;;;;;;137159;1272;22477;-81
2023/06/16 00:52:13;;;;;;;;;;;;;;;;;;137021;1272;22494;-81
2023/06/16 00:55:15;;;;;;;;;;;;;;;;;;137472;1272;22605;-82
2023/06/16 00:58:17;;;;;;;;;;;;;;;;;;137285;1272;22530;-80
2023/06/16 01:01:18;;;;;;;;;;;;;;;;;;137145;1272;22511;-81
2023/06/16 01:04:20;;;;;;;;;;;;;;;;;;137263;1272;22518;-81
2023/06/16 01:07:21;;;;;;;;;;;;;;;;;;137621;1272;22491;-81
2023/06/16 01:10:22;;;;;;;;;;;;;;;;;;137021;1272;22494;-82
2023/06/16 01:13:23;;;;;;;;;;;;;;;;;;137068;1272;22574;-81
2023/06/16 01:16:25;;;;;;;;;;;;;;;;;;137469;1272;22493;-82
2023/06/16 01:19:28;;;;;;;;;;;;;;;;;;137097;1269;22581;-82
2023/06/16 01:22:29;;;;;;;;;;;;;;;;;;137020;1272;22526;-82
2023/06/16 01:25:30;;;;;;;;;;;;;;;;;;137511;1272;22534;-80
2023/06/16 01:28:31;;;;;;;;;;;;;;;;;;137020;1258;22507;-80
2023/06/16 01:31:32;;;;;;;;;;;;;;;;;;137069;1272;22528;-82
2023/06/16 01:34:33;;;;;;;;;;;;;;;;;;137410;1272;22507;-84
2023/06/16 01:37:34;;;;;;;;;;;;;;;;;;137133;1272;22940;-85
2023/06/16 01:40:35;;;;;;;;;;;;;;;;;;136627;1272;22564;-82
2023/06/16 01:43:37;;;;;;;;;;;;;;;;;;137364;1272;22502;-80
2023/06/16 01:46:38;;;;;;;;;;;;;;;;;;137127;1272;22526;-80
2023/06/16 01:49:40;;;;;;;;;;;;;;;;;;137173;1272;23058;-82
2023/06/16 01:52:41;;;;;;;;;;;;;;;;;;137473;1272;22510;-84
2023/06/16 01:55:42;;;;;;;;;;;;;;;;;;137264;1272;22995;-82
2023/06/16 01:58:43;;;;;;;;;;;;;;;;;;137203;1272;22973;-82
2023/06/16 02:01:44;;;;;;;;;;;;;;;;;;137277;1272;22611;-82
2023/06/16 02:04:45;;;;;;;;;;;;;;;;;;137529;1273;23140;-80
2023/06/16 02:07:46;;;;;;;;;;;;;;;;;;137039;1273;22549;-81
2023/06/16 02:10:47;;;;;;;;;;;;;;;;;;137105;1272;22571;-82
2023/06/16 02:13:48;;;;;;;;;;;;;;;;;;137612;1273;22574;-80
2023/06/16 02:16:51;;;;;;;;;;;;;;;;;;137168;1273;23367;-81
2023/06/16 02:19:52;;;;;;;;;;;;;;;;;;137164;1273;22510;-80
2023/06/16 02:22:53;;;;;;;;;;;;;;;;;;137547;1273;22495;-81
2023/06/16 02:25:54;;;;;;;;;;;;;;;;;;137241;1269;22553;-82
2023/06/16 02:28:55;;;;;;;;;;;;;;;;;;137229;1272;22495;-80
2023/06/16 02:31:56;;;;;;;;;;;;;;;;;;137316;1272;22522;-84
2023/06/16 02:34:58;;;;;;;;;;;;;;;;;;137423;1272;22959;-83
2023/06/16 02:37:59;;;;;;;;;;;;;;;;;;137139;1272;22504;-82
2023/06/16 02:41:00;;;;;;;;;;;;;;;;;;137179;1272;22523;-81
2023/06/16 02:44:01;;;;;;;;;;;;;;;;;;137529;1272;22564;-80
2023/06/16 02:47:03;;;;;;;;;;;;;;;;;;137167;1272;22546;-81
2023/06/16 02:50:04;;;;;;;;;;;;;;;;;;137128;1272;22533;-80
2023/06/16 02:53:05;;;;;;;;;;;;;;;;;;137605;1273;22591;-81
2023/06/16 02:56:07;;;;;;;;;;;;;;;;;;137150;1272;22555;-81
2023/06/16 02:59:10;;;;;;;;;;;;;;;;;;137162;1272;23089;-80
2023/06/16 03:02:11;;;;;;;;;;;;;;;;;;137611;1271;22448;-81
2023/06/16 03:05:12;;;;;;;;;;;;;;;;;;137284;1272;22494;-80
2023/06/16 03:08:13;;;;;;;;;;;;;;;;;;137420;1273;22513;-79
2023/06/16 03:11:15;;;;;;;;;;;;;;;;;;137262;1273;22510;-81
2023/06/16 03:14:16;;;;;;;;;;;;;;;;;;137330;1272;22540;-80
2023/06/16 03:17:20;;;;;;;;;;;;;;;;;;137119;1272;23004;-81
2023/06/16 03:20:21;;;;;;;;;;;;;;;;;;137346;1272;24183;-81
2023/06/16 03:23:22;;;;;;;;;;;;;;;;;;137552;1272;22526;-82
2023/06/16 03:26:24;;;;;;;;;;;;;;;;;;137146;1273;22503;-81
2023/06/16 03:29:26;;;;;;;;;;;;;;;;;;137185;1262;22601;-81
2023/06/16 03:32:28;;;;;;;;;;;;;;;;;;137575;1273;22983;-82
2023/06/16 03:35:29;;;;;;;;;;;;;;;;;;137257;1273;22870;-81
2023/06/16 03:38:30;;;;;;;;;;;;;;;;;;137263;1273;22494;-80
2023/06/16 03:41:31;;;;;;;;;;;;;;;;;;137615;1272;22294;-80
2023/06/16 03:44:32;;;;;;;;;;;;;;;;;;137524;1272;22511;-80
2023/06/16 03:47:33;;;;;;;;;;;;;;;;;;136969;1273;198004;-80
2023/06/16 03:50:35;;;;;;;;;;;;;;;;;;136700;1272;23058;-80
2023/06/16 03:53:36;;;;;;;;;;;;;;;;;;137588;1272;22289;-81
2023/06/16 03:56:37;;;;;;;;;;;;;;;;;;137372;1272;22521;-80
2023/06/16 03:59:38;;;;;;;;;;;;;;;;;;137582;1272;22360;-81
2023/06/16 04:02:44;;;;;;;;;;;;;;;;;;137480;1272;22541;-81
2023/06/16 04:05:45;;;;;;;;;;;;;;;;;;137090;1261;22563;-81
2023/06/16 04:08:47;;;;;;;;;;;;;;;;;;137324;1272;23126;-80
2023/06/16 04:11:48;;;;;;;;;;;;;;;;;;137308;1272;25406;-80
2023/06/16 04:14:49;;;;;;;;;;;;;;;;;;136783;1272;22507;-81
2023/06/16 04:17:50;;;;;;;;;;;;;;;;;;137387;1272;22550;-80
2023/06/16 04:20:51;;;;;;;;;;;;;;;;;;137597;1272;22316;-81
2023/06/16 04:23:52;;;;;;;;;;;;;;;;;;137380;1272;22494;-79
2023/06/16 04:26:58;;;;;;;;;;;;;;;;;;137628;1272;22361;-81
2023/06/16 04:30:02;;;;;;;;;;;;;;;;;;137345;1272;22526;-82
2023/06/16 04:33:05;;;;;;;;;;;;;;;;;;137574;1272;22909;-84
2023/06/16 04:36:06;;;;;;;;;;;;;;;;;;137405;1272;22550;-82
2023/06/16 04:39:07;;;;;;;;;;;;;;;;;;137410;1272;22508;-83
2023/06/16 04:42:09;;;;;;;;;;;;;;;;;;137679;1263;22361;-83
2023/06/16 04:45:11;;;;;;;;;;;;;;;;;;137254;1272;22496;-83
2023/06/16 04:48:12;;;;;;;;;;;;;;;;;;137268;1272;22495;-84
2023/06/16 04:51:13;;;;;;;;;;;;;;;;;;137418;1272;22544;-83
2023/06/16 04:54:14;;;;;;;;;;;;;;;;;;137400;1272;22518;-83
2023/06/16 04:57:15;;;;;;;;;;;;;;;;;;137594;1272;22332;-84
2023/06/16 05:00:17;;;;;;;;;;;;;;;;;;137562;1272;22371;-84
2023/06/16 05:03:18;;;;;;;;;;;;;;;;;;137545;1272;22431;-81
2023/06/16 05:06:19;;;;;;;;;;;;;;;;;;137168;1273;22534;-82
2023/06/16 05:09:23;;;;;;;;;;;;;;;;;;137467;1273;22820;-82
2023/06/16 05:12:25;;;;;;;;;;;;;;;;;;137577;1272;22348;-80
2023/06/16 05:15:27;;;;;;;;;;;;;;;;;;137544;1273;22280;-83
2023/06/16 05:18:28;;;;;;;;;;;;;;;;;;137470;1272;22537;-84
2023/06/16 05:21:32;;;;;;;;;;;;;;;;;;137558;1266;22292;-84
2023/06/16 05:24:34;;;;;;;;;;;;;;;;;;137561;1272;22859;-83
2023/06/16 05:27:37;;;;;;;;;;;;;;;;;;137479;1272;23195;-86
2023/06/16 05:30:39;;;;;;;;;;;;;;;;;;137572;1272;22327;-84
2023/06/16 05:33:43;;;;;;;;;;;;;;;;;;137523;1272;22385;-83
2023/06/16 05:36:44;;;;;;;;;;;;;;;;;;137556;1272;22313;-84
2023/06/16 05:39:48;;;;;;;;;;;;;;;;;;137582;1272;22477;-83
2023/06/16 05:42:49;;;;;;;;;;;;;;;;;;137584;1272;22334;-85
2023/06/16 05:45:50;;;;;;;;;;;;;;;;;;137621;1272;22755;-85
2023/06/16 05:48:54;;;;;;;;;;;;;;;;;;137560;1272;22881;-85
2023/06/16 05:51:56;;;;;;;;;;;;;;;;;;137589;1272;22494;-84
2023/06/16 05:54:57;;;;;;;;;;;;;;;;;;137003;1272;23026;-80
2023/06/16 05:58:00;;;;;;;;;;;;;;;;;;137398;1272;22515;-80
2023/06/16 06:01:01;;;;;;;;;;;;;;;;;;137578;1273;22318;-85
2023/06/16 06:04:02;;;;;;;;;;;;;;;;;;137572;1272;22402;-84
2023/06/16 06:07:04;;;;;;;;;;;;;;;;;;137533;1272;22399;-83
2023/06/16 06:10:05;;;;;;;;;;;;;;;;;;137583;1272;22322;-81
2023/06/16 06:13:06;;;;;;;;;;;;;;;;;;137613;1272;22315;-83
2023/06/16 06:16:08;;;;;;;;;;;;;;;;;;137587;1272;22885;-83
2023/06/16 06:19:09;;;;;;;;;;;;;;;;;;137660;1269;22450;-84
2023/06/16 06:22:10;;;;;;;;;;;;;;;;;;137690;1272;22260;-85
2023/06/16 06:25:13;;;;;;;;;;;;;;;;;;137605;1269;22475;-84
2023/06/16 06:28:14;;;;;;;;;;;;;;;;;;137360;1272;22559;-84
2023/06/16 06:31:16;;;;;;;;;;;;;;;;;;137672;1272;22506;-84
2023/06/16 06:34:17;;;;;;;;;;;;;;;;;;137672;1268;23026;-83
2023/06/16 06:37:18;;;;;;;;;;;;;;;;;;137553;1272;22548;-83
2023/06/16 06:40:20;;;;;;;;;;;;;;;;;;137237;1272;22576;-83
2023/06/16 06:43:21;;;;;;;;;;;;;;;;;;137654;1272;22382;-84
2023/06/16 06:46:22;;;;;;;;;;;;;;;;;;137662;1269;22353;-85
2023/06/16 06:49:23;;;;;;;;;;;;;;;;;;137679;1272;22271;-85
2023/06/16 06:52:24;;;;;;;;;;;;;;;;;;137659;1272;22302;-85
2023/06/16 06:55:26;;;;;;;;;;;;;;;;;;137674;1272;22418;-85
2023/06/16 06:58:31;;;;;;;;;;;;;;;;;;137587;1272;22372;-84
2023/06/16 07:01:32;;;;;;;;;;;;;;;;;;137612;1272;22910;-84
2023/06/16 07:04:43;;;;;;;;;;;;;;;;;;137596;1272;22420;-86
2023/06/16 07:07:45;;;;;;;;;;;;;;;;;;137620;1272;22361;-85
2023/06/16 07:10:46;;;;;;;;;;;;;;;;;;137644;1269;22332;-86
2023/06/16 07:13:47;;;;;;;;;;;;;;;;;;137633;1272;22359;-84
2023/06/16 07:16:48;;;;;;;;;;;;;;;;;;137644;1272;22388;-83
2023/06/16 07:19:50;;;;;;;;;;;;;;;;;;137631;1272;22345;-84
2023/06/16 07:22:51;;;;;;;;;;;;;;;;;;137674;1272;22514;-83
2023/06/16 07:25:53;;;;;;;;;;;;;;;;;;137377;1272;22581;-81
2023/06/16 07:28:54;;;;;;;;;;;;;;;;;;137481;1272;22958;-83
2023/06/16 07:31:55;;;;;;;;;;;;;;;;;;137583;1272;22903;-84
2023/06/16 07:34:57;;;;;;;;;;;;;;;;;;137509;1272;22487;-84
2023/06/16 07:37:58;;;;;;;;;;;;;;;;;;137528;1272;22565;-83
2023/06/16 07:41:02;;;;;;;;;;;;;;;;;;137648;1272;22428;-83
2023/06/16 07:44:03;;;;;;;;;;;;;;;;;;137647;1272;22362;-82
2023/06/16 07:47:04;;;;;;;;;;;;;;;;;;137599;1272;22331;-84
2023/06/16 07:50:06;;;;;;;;;;;;;;;;;;137688;1272;22269;-84
2023/06/16 07:53:07;;;;;;;;;;;;;;;;;;137564;1272;22585;-84
2023/06/16 07:56:08;;;;;;;;;;;;;;;;;;137661;1272;22543;-84
2023/06/16 07:59:09;;;;;;;;;;;;;;;;;;137702;1272;22283;-85
2023/06/16 08:02:11;;;;;;;;;;;;;;;;;;137561;1270;22551;-83
2023/06/16 08:05:12;;;;;;;;;;;;;;;;;;137669;1272;22331;-83
2023/06/16 08:08:13;;;;;;;;;;;;;;;;;;137682;1272;22505;-83
2023/06/16 08:11:14;;;;;;;;;;;;;;;;;;137696;1267;22336;-84
2023/06/16 08:14:16;;;;;;;;;;;;;;;;;;137648;1270;22707;-84
2023/06/16 08:17:17;;;;;;;;;;;;;;;;;;137645;1272;22961;-84
2023/06/16 08:20:22;;;;;;;;;;;;;;;;;;137668;1272;22312;-83
2023/06/16 08:23:23;;;;;;;;;;;;;;;;;;137543;1271;22360;-84
2023/06/16 08:26:28;;;;;;;;;;;;;;;;;;137673;1269;22581;-84
2023/06/16 08:29:30;;;;;;;;;;;;;;;;;;137703;1272;22946;-83
2023/06/16 08:32:31;;;;;;;;;;;;;;;;;;137701;1272;22377;-84
2023/06/16 08:35:32;;;;;;;;;;;;;;;;;;137652;1272;22501;-84
2023/06/16 08:38:34;;;;;;;;;;;;;;;;;;137672;1272;22350;-83
2023/06/16 08:41:35;;;;;;;;;;;;;;;;;;137728;1272;22796;-84
2023/06/16 08:44:36;;;;;;;;;;;;;;;;;;137529;1272;22381;-86
2023/06/16 08:47:39;;;;;;;;;;;;;;;;;;137666;1272;22331;-85
2023/06/16 08:50:40;;;;;;;;;;;;;;;;;;137725;1272;22729;-83
2023/06/16 08:53:41;;;;;;;;;;;;;;;;;;137711;1272;22354;-84
2023/06/16 08:56:43;;;;;;;;;;;;;;;;;;137653;1272;22722;-82
2023/06/16 08:59:47;;;;;;;;;;;;;;;;;;137658;1272;22334;-83
2023/06/16 09:02:49;;;;;;;;;;;;;;;;;;137543;1272;22473;-82
2023/06/16 09:05:51;;;;;;;;;;;;;;;;;;137570;1272;22681;-84
2023/06/16 09:08:53;;;;;;;;;;;;;;;;;;137690;1272;22530;-83
2023/06/16 09:11:54;;;;;;;;;;;;;;;;;;137705;1272;22791;-84
2023/06/16 09:14:56;;;;;;;;;;;;;;;;;;137675;1267;22494;-86
2023/06/16 09:17:57;;;;;;;;;;;;;;;;;;137718;1272;22475;-85
2023/06/16 09:21:00;;;;;;;;;;;;;;;;;;137540;1272;22324;-86
2023/06/16 09:24:10;;;;;;;;;;;;;;;;;;137726;1263;22257;-84
2023/06/16 09:27:12;;;;;;;;;;;;;;;;;;137613;1272;22531;-84
2023/06/16 09:30:14;;;;;;;;;;;;;;;;;;137645;1272;23258;-84
2023/06/16 09:33:16;;;;;;;;;;;;;;;;;;137680;1272;22516;-84
2023/06/16 09:36:18;;;;;;;;;;;;;;;;;;137713;1265;22379;-85
2023/06/16 09:39:19;;;;;;;;;;;;;;;;;;137687;1272;22340;-85
2023/06/16 09:42:23;;;;;;;;;;;;;;;;;;137692;1272;22318;-84
2023/06/16 09:45:35;;;;;;;;;;;;;;;;;;;;;
2023/06/16 09:48:39;;;;;;;;;;;;;;;;;;136645;1272;23091;-84
2023/06/16 09:51:41;;;;;;;;;;;;;;;;;;136971;1272;22549;-84
2023/06/16 09:54:42;;;;;;;;;;;;;;;;;;137498;1272;23115;-85
2023/06/16 09:57:44;;;;;;;;;;;;;;;;;;137383;1272;22547;-82
2023/06/16 10:00:45;;;;;;;;;;;;;;;;;;137603;1272;23391;-84
2023/06/16 10:03:50;;;;;;;;;;;;;;;;;;137464;1272;22602;-84
2023/06/16 10:06:53;;;;;;;;;;;;;;;;;;137531;1270;22547;-84
2023/06/16 10:09:55;;;;;;;;;;;;;;;;;;137502;1272;22617;-83
2023/06/16 10:12:56;;;;;;;;;;;;;;;;;;137699;1272;23100;-85
2023/06/16 10:15:57;;;;;;;;;;;;;;;;;;137703;1272;22307;-85
2023/06/16 10:18:58;;;;;;;;;;;;;;;;;;137383;1272;22528;-85
2023/06/16 10:21:59;;;;;;;;;;;;;;;;;;137532;1272;22524;-83
2023/06/16 10:25:02;;;;;;;;;;;;;;;;;;137444;1272;22537;-84
2023/06/16 10:28:07;;;;;;;;;;;;;;;;;;137654;1272;22655;-80
2023/06/16 10:31:08;;;;;;;;;;;;;;;;;;137546;1272;22515;-85
2023/06/16 10:34:09;;;;;;;;;;;;;;;;;;137378;1272;22511;-85
2023/06/16 10:37:12;;;;;;;;;;;;;;;;;;137323;1272;22517;-84
2023/06/16 10:40:14;;;;;;;;;;;;;;;;;;137576;1272;22865;-83
2023/06/16 10:43:17;;;;;;;;;;;;;;;;;;137699;1272;22483;-84
2023/06/16 10:46:18;;;;;;;;;;;;;;;;;;137767;1260;22331;-85
2023/06/16 10:49:20;;;;;;;;;;;;;;;;;;137225;1272;22611;-84
2023/06/16 10:52:30;;;;;;;;;;;;;;;;;;137600;1272;22504;-85
2023/06/16 10:55:33;;;;;;;;;;;;;;;;;;137136;1272;22472;-81
2023/06/16 10:58:34;;;;;;;;;;;;;;;;;;137691;1272;22306;-84
2023/06/16 11:01:36;;;;;;;;;;;;;;;;;;137656;1272;22408;-83
2023/06/16 11:04:39;;;;;;;;;;;;;;;;;;137681;1272;22543;-85
2023/06/16 11:07:41;;;;;;;;;;;;;;;;;;137372;1272;22552;-84
2023/06/16 11:10:42;;;;;;;;;;;;;;;;;;137683;1272;22350;-85
2023/06/16 11:13:43;;;;;;;;;;;;;;;;;;137705;1272;22683;-84
2023/06/16 11:16:44;;;;;;;;;;;;;;;;;;137698;1272;22272;-84
2023/06/16 11:19:45;;;;;;;;;;;;;;;;;;137720;1272;22321;-84
2023/06/16 11:22:46;;;;;;;;;;;;;;;;;;137622;1272;22504;-86
2023/06/16 11:25:47;;;;;;;;;;;;;;;;;;137726;1272;22368;-84
2023/06/16 11:28:48;;;;;;;;;;;;;;;;;;137691;1272;22355;-83
2023/06/16 11:31:51;;;;;;;;;;;;;;;;;;137650;1272;22480;-84
2023/06/16 11:34:52;;;;;;;;;;;;;;;;;;137684;1272;22326;-85
2023/06/16 11:37:54;;;;;;;;;;;;;;;;;;137696;1272;22297;-83
2023/06/16 11:40:55;;;;;;;;;;;;;;;;;;137687;1272;22314;-85
2023/06/16 11:43:57;;;;;;;;;;;;;;;;;;137493;1272;22493;-85
2023/06/16 11:46:58;;;;;;;;;;;;;;;;;;137652;1272;22316;-84
2023/06/16 11:49:59;;;;;;;;;;;;;;;;;;137701;1272;22419;-84
2023/06/16 11:53:00;;;;;;;;;;;;;;;;;;137710;1272;22422;-85
2023/06/16 11:56:04;;;;;;;;;;;;;;;;;;137726;1272;22308;-84
2023/06/16 11:59:05;;;;;;;;;;;;;;;;;;137729;1272;22321;-86
2023/06/16 12:02:08;;;;;;;;;;;;;;;;;;137714;1272;22429;-82
2023/06/16 12:05:10;;;;;;;;;;;;;;;;;;137639;1266;22522;-82
2023/06/16 12:08:11;;;;;;;;;;;;;;;;;;137662;1272;22323;-80
2023/06/16 12:11:13;;;;;;;;;;;;;;;;;;137647;1272;22273;-82
2023/06/16 12:14:14;;;;;;;;;;;;;;;;;;137653;1272;22751;-84
2023/06/16 12:17:16;;;;;;;;;;;;;;;;;;137647;1272;22313;-84
2023/06/16 12:20:18;;;;;;;;;;;;;;;;;;137673;1272;22927;-83
2023/06/16 12:23:19;;;;;;;;;;;;;;;;;;137661;1272;22354;-83
2023/06/16 12:26:20;;;;;;;;;;;;;;;;;;137669;1272;22265;-83
2023/06/16 12:29:22;;;;;;;;;;;;;;;;;;137683;1272;22338;-84
2023/06/16 12:32:23;;;;;;;;;;;;;;;;;;137679;1272;22404;-84
2023/06/16 12:35:24;;;;;;;;;;;;;;;;;;137696;1266;22290;-83
2023/06/16 12:38:25;;;;;;;;;;;;;;;;;;137668;1272;22350;-83
2023/06/16 12:41:26;;;;;;;;;;;;;;;;;;137690;1272;22307;-84
2023/06/16 12:44:27;;;;;;;;;;;;;;;;;;137694;1272;22272;-84
2023/06/16 12:47:28;;;;;;;;;;;;;;;;;;137672;1272;22276;-84
2023/06/16 12:50:29;;;;;;;;;;;;;;;;;;137747;1272;23053;-84
2023/06/16 12:53:31;;;;;;;;;;;;;;;;;;137744;1272;22975;-85
2023/06/16 12:56:32;;;;;;;;;;;;;;;;;;137714;1272;22800;-85
2023/06/16 12:59:33;;;;;;;;;;;;;;;;;;137694;1272;22329;-84
2023/06/16 13:02:35;;;;;;;;;;;;;;;;;;137690;1269;22464;-84
2023/06/16 13:05:36;;;;;;;;;;;;;;;;;;137723;1272;22331;-84
2023/06/16 13:08:37;;;;;;;;;;;;;;;;;;137492;1272;22498;-84
2023/06/16 13:11:38;;;;;;;;;;;;;;;;;;137363;1272;22576;-85
2023/06/16 13:14:40;;;;;;;;;;;;;;;;;;137679;1272;25385;-82
2023/06/16 13:17:41;;;;;;;;;;;;;;;;;;137364;1272;22532;-85
2023/06/16 13:20:42;;;;;;;;;;;;;;;;;;137094;1272;22932;-85
2023/06/16 13:23:43;;;;;;;;;;;;;;;;;;137701;1272;22468;-84
2023/06/16 13:26:44;;;;;;;;;;;;;;;;;;137414;1272;22528;-84
2023/06/16 13:29:46;;;;;;;;;;;;;;;;;;137657;1272;22570;-84
2023/06/16 13:32:49;;;;;;;;;;;;;;;;;;137513;1272;23222;-83
2023/06/16 13:35:50;;;;;;;;;;;;;;;;;;137679;1272;22479;-83
2023/06/16 13:38:51;;;;;;;;;;;;;;;;;;137715;1272;22806;-84
2023/06/16 13:41:53;;;;;;;;;;;;;;;;;;137713;1272;22328;-85
2023/06/16 13:44:54;;;;;;;;;;;;;;;;;;137605;1272;22511;-85
2023/06/16 13:47:56;;;;;;;;;;;;;;;;;;137372;1272;22488;-86
2023/06/16 13:50:57;;;;;;;;;;;;;;;;;;137362;1272;22526;-86
2023/06/16 13:53:58;;;;;;;;;;;;;;;;;;137735;1272;22825;-85
2023/06/16 13:56:59;;;;;;;;;;;;;;;;;;137260;1272;22846;-86
2023/06/16 14:00:01;;;;;;;;;;;;;;;;;;137285;1272;22569;-86
2023/06/16 14:03:02;;;;;;;;;;;;;;;;;;137674;1272;22438;-87
2023/06/16 14:06:04;;;;;;;;;;;;;;;;;;137341;1272;22523;-85
2023/06/16 14:09:05;;;;;;;;;;;;;;;;;;137733;1272;22328;-85
2023/06/16 14:12:06;;;;;;;;;;;;;;;;;;137685;1272;22311;-83
2023/06/16 14:15:07;;;;;;;;;;;;;;;;;;137369;1272;23109;-85
2023/06/16 14:18:14;;;;;;;;;;;;;;;;;;137706;1272;22386;-85
2023/06/16 14:21:18;;;;;;;;;;;;;;;;;;137716;1272;22826;-85
2023/06/16 14:24:19;;;;;;;;;;;;;;;;;;137695;1272;22463;-86
2023/06/16 14:27:20;;;;;;;;;;;;;;;;;;137698;1272;22279;-86
2023/06/16 14:30:21;;;;;;;;;;;;;;;;;;137722;1272;22340;-85
2023/06/16 14:33:23;;;;;;;;;;;;;;;;;;137711;1272;22397;-83
2023/06/16 14:36:24;;;;;;;;;;;;;;;;;;137678;1272;22326;-85
2023/06/16 14:39:25;;;;;;;;;;;;;;;;;;137704;1272;22321;-85
2023/06/16 14:42:26;;;;;;;;;;;;;;;;;;137709;1256;22294;-86
2023/06/16 14:45:32;;;;;;;;;;;;;;;;;;137264;1272;22557;-85
2023/06/16 14:48:33;;;;;;;;;;;;;;;;;;137309;1272;22518;-85
2023/06/16 14:51:36;;;;;;;;;;;;;;;;;;137689;1272;22505;-85
2023/06/16 14:54:37;;;;;;;;;;;;;;;;;;137202;1272;22510;-83
2023/06/16 14:57:39;;;;;;;;;;;;;;;;;;137192;1272;22498;-85
2023/06/16 15:00:40;;;;;;;;;;;;;;;;;;137552;1272;22530;-84
2023/06/16 15:03:43;;;;;;;;;;;;;;;;;;137005;1272;22527;-85
2023/06/16 15:06:44;;;;;;;;;;;;;;;;;;137170;1272;22519;-86
2023/06/16 15:09:46;;;;;;;;;;;;;;;;;;137398;1272;23234;-87
2023/06/16 15:12:50;;;;;;;;;;;;;;;;;;137142;1272;22545;-85
2023/06/16 15:15:51;;;;;;;;;;;;;;;;;;136871;1272;22559;-84
2023/06/16 15:18:52;;;;;;;;;;;;;;;;;;136404;1272;22552;-84
2023/06/16 15:22:05;;;;;;;;;;;;;;;;;;136985;1272;24241;-84
2023/06/16 15:25:11;;;;;;;;;;;;;;;;;;137219;1272;22514;-84
2023/06/16 15:28:12;;;;;;;;;;;;;;;;;;137307;1269;22518;-86
2023/06/16 15:31:14;;;;;;;;;;;;;;;;;;137006;1272;22564;-86
2023/06/16 15:34:15;;;;;;;;;;;;;;;;;;137154;1269;22542;-86
2023/06/16 15:37:16;;;;;;;;;;;;;;;;;;137126;1272;22691;-85
2023/06/16 15:40:17;;;;;;;;;;;;;;;;;;137034;1272;23012;-86
2023/06/16 15:43:18;;;;;;;;;;;;;;;;;;137418;1269;22632;-86
2023/06/16 15:46:22;;;;;;;;;;;;;;;;;;137256;1272;22523;-84
2023/06/16 15:49:26;;;;;;;;;;;;;;;;;;133006;1272;5355148;-84
2023/06/16 15:52:29;;;;;;;;;;;;;;;;;;136954;1272;22538;-85
2023/06/16 15:55:32;;;;;;;;;;;;;;;;;;137371;1272;22502;-85
2023/06/16 15:58:34;;;;;;;;;;;;;;;;;;136971;1272;23265;-85
2023/06/16 16:01:37;;;;;;;;;;;;;;;;;;137180;1272;22861;-85
2023/06/16 16:04:39;;;;;;;;;;;;;;;;;;137497;1272;22488;-87
2023/06/16 16:07:40;;;;;;;;;;;;;;;;;;137078;1272;22922;-87
2023/06/16 16:10:41;;;;;;;;;;;;;;;;;;137346;1266;22543;-85
2023/06/16 16:13:45;;;;;;;;;;;;;;;;;;137465;1269;22565;-84
2023/06/16 16:16:46;;;;;;;;;;;;;;;;;;137089;1272;22622;-84
2023/06/16 16:19:48;;;;;;;;;;;;;;;;;;137148;1272;22591;-85
2023/06/16 16:22:50;;;;;;;;;;;;;;;;;;137321;1272;22670;-85
2023/06/16 16:25:51;;;;;;;;;;;;;;;;;;136710;1260;22975;-85
2023/06/16 16:28:52;;;;;;;;;;;;;;;;;;136836;1272;22674;-88
2023/06/16 16:31:54;;;;;;;;;;;;;;;;;;136973;1272;22495;-85
2023/06/16 16:34:55;;;;;;;;;;;;;;;;;;136781;1269;22524;-85
2023/06/16 16:37:59;;;;;;;;;;;;;;;;;;137253;1272;22595;-85
2023/06/16 16:41:01;;;;;;;;;;;;;;;;;;136825;1272;23029;-84
2023/06/16 16:44:03;;;;;;;;;;;;;;;;;;137139;1272;22509;-84
2023/06/16 16:47:05;;;;;;;;;;;;;;;;;;137139;1272;22531;-84
2023/06/16 16:50:06;;;;;;;;;;;;;;;;;;137212;1272;22511;-85
2023/06/16 16:53:09;;;;;;;;;;;;;;;;;;137348;1272;23160;-85
2023/06/16 16:56:13;;;;;;;;;;;;;;;;;;137162;1272;22518;-84
2023/06/16 16:59:15;;;;;;;;;;;;;;;;;;137015;1272;22507;-85
2023/06/16 17:02:16;;;;;;;;;;;;;;;;;;137327;1272;22508;-85
2023/06/16 17:05:22;;;;;;;;;;;;;;;;;;137340;1272;22466;-85
2023/06/16 17:08:23;;;;;;;;;;;;;;;;;;137571;1272;22950;-85
2023/06/16 17:11:26;;;;;;;;;;;;;;;;;;136661;1272;22514;-81
2023/06/16 17:14:27;;;;;;;;;;;;;;;;;;137640;1272;22482;-81
2023/06/16 17:17:28;;;;;;;;;;;;;;;;;;137242;1272;22511;-83
2023/06/16 17:20:29;;;;;;;;;;;;;;;;;;136791;1272;22515;-82
2023/06/16 17:23:30;;;;;;;;;;;;;;;;;;136708;1272;22564;-82
2023/06/16 17:26:31;;;;;;;;;;;;;;;;;;136366;1272;22545;-82
2023/06/16 17:29:36;;;;;;;;;;;;;;;;;;136854;1272;22700;-84
2023/06/16 17:32:37;;;;;;;;;;;;;;;;;;137275;1272;22690;-83
2023/06/16 17:35:39;;;;;;;;;;;;;;;;;;136902;1266;25306;-82
2023/06/16 17:38:40;;;;;;;;;;;;;;;;;;137291;1272;24193;-83
2023/06/16 17:41:42;;;;;;;;;;;;;;;;;;137420;1272;23054;-85
2023/06/16 17:44:44;;;;;;;;;;;;;;;;;;137152;1272;22557;-84
2023/06/16 17:47:45;;;;;;;;;;;;;;;;;;137122;1272;25355;-84
2023/06/16 17:50:46;;;;;;;;;;;;;;;;;;137458;1272;22511;-85
2023/06/16 17:53:47;;;;;;;;;;;;;;;;;;137023;1272;23094;-84
2023/06/16 17:56:48;;;;;;;;;;;;;;;;;;137049;1272;22530;-84
2023/06/16 17:59:50;;;;;;;;;;;;;;;;;;137536;1272;23015;-85
2023/06/16 18:02:51;;;;;;;;;;;;;;;;;;136925;1272;22464;-84
2023/06/16 18:05:52;;;;;;;;;;;;;;;;;;136892;1268;22500;-84
2023/06/16 18:08:53;;;;;;;;;;;;;;;;;;137447;1269;22504;-85
2023/06/16 18:11:55;;;;;;;;;;;;;;;;;;136863;1272;22490;-86
2023/06/16 18:14:56;;;;;;;;;;;;;;;;;;136918;1269;22540;-83
2023/06/16 18:17:57;;;;;;;;;;;;;;;;;;136878;1272;22532;-83
2023/06/16 18:20:58;;;;;;;;;;;;;;;;;;136991;1272;22468;-85
2023/06/16 18:24:00;;;;;;;;;;;;;;;;;;137062;1272;22491;-84
2023/06/16 18:27:02;;;;;;;;;;;;;;;;;;137323;1272;22551;-85
2023/06/16 18:30:03;;;;;;;;;;;;;;;;;;137260;1272;22465;-84
2023/06/16 18:33:04;;;;;;;;;;;;;;;;;;137203;1272;22556;-84
2023/06/16 18:36:05;;;;;;;;;;;;;;;;;;137266;1272;25256;-84
2023/06/16 18:39:07;;;;;;;;;;;;;;;;;;137305;1272;22607;-86
2023/06/16 18:42:08;;;;;;;;;;;;;;;;;;136875;1272;22495;-83
2023/06/16 18:45:09;;;;;;;;;;;;;;;;;;137349;1272;22515;-83
2023/06/16 18:48:10;;;;;;;;;;;;;;;;;;137542;1272;22616;-82
2023/06/16 18:51:12;;;;;;;;;;;;;;;;;;137153;1269;22626;-81
2023/06/16 18:54:13;;;;;;;;;;;;;;;;;;137111;1272;22598;-82
2023/06/16 18:57:15;;;;;;;;;;;;;;;;;;137613;1272;22541;-83
2023/06/16 19:00:17;;;;;;;;;;;;;;;;;;137034;1272;22539;-84
2023/06/16 19:03:18;;;;;;;;;;;;;;;;;;136878;1272;22628;-83
2023/06/16 19:06:19;;;;;;;;;;;;;;;;;;137439;1272;22584;-82
2023/06/16 19:09:28;;;;;;;;;;;;;;;;;;136907;1272;22488;-84
2023/06/16 19:12:29;;;;;;;;;;;;;;;;;;136885;1272;22535;-84
2023/06/16 19:15:32;;;;;;;;;;;;;;;;;;137442;1269;22591;-86
2023/06/16 19:18:33;;;;;;;;;;;;;;;;;;136885;1272;22524;-83
2023/06/16 19:21:34;;;;;;;;;;;;;;;;;;136997;1272;22513;-83
2023/06/16 19:24:35;;;;;;;;;;;;;;;;;;137472;1272;22532;-82
2023/06/16 19:27:36;;;;;;;;;;;;;;;;;;137162;1272;22512;-84
2023/06/16 19:30:38;;;;;;;;;;;;;;;;;;137089;1272;22573;-83
2023/06/16 19:33:39;;;;;;;;;;;;;;;;;;137340;1272;22502;-83
2023/06/16 19:36:40;;;;;;;;;;;;;;;;;;137395;1272;23023;-83
2023/06/16 19:39:41;;;;;;;;;;;;;;;;;;136785;1272;22898;-83
2023/06/16 19:42:42;;;;;;;;;;;;;;;;;;137216;1272;25251;-82
2023/06/16 19:45:43;;;;;;;;;;;;;;;;;;137334;1272;22480;-83
2023/06/16 19:48:44;;;;;;;;;;;;;;;;;;137070;1272;25246;-83
2023/06/16 19:51:46;;;;;;;;;;;;;;;;;;137233;1272;22505;-82
2023/06/16 19:54:47;;;;;;;;;;;;;;;;;;137670;1272;22519;-85
2023/06/16 19:57:51;;;;;;;;;;;;;;;;;;137133;1272;22540;-83
2023/06/16 20:00:52;;;;;;;;;;;;;;;;;;137039;1272;22544;-83
2023/06/16 20:03:53;;;;;;;;;;;;;;;;;;137669;1272;22513;-82
2023/06/16 20:06:55;;;;;;;;;;;;;;;;;;136850;1269;22486;-82
2023/06/16 20:09:56;;;;;;;;;;;;;;;;;;136922;1272;22477;-81
2023/06/16 20:12:58;;;;;;;;;;;;;;;;;;137487;1272;23015;-81
2023/06/16 20:15:59;;;;;;;;;;;;;;;;;;137303;1260;22528;-82
2023/06/16 20:19:00;;;;;;;;;;;;;;;;;;137307;1272;22846;-83